sensor_id;sensor_type;location;lat;lon;timestamp;temperature;humidity
41344;DHT22;27089;50.022;7.604;2023-01-05T00:00:13;10.70;99.90
41344;DHT22;27089;50.022;7.604;2023-01-05T00:02:40;10.70;99.90
41344;DHT22;27089;50.022;7.604;2023-01-05T00:05:07;10.70;99.90
41344;DHT22;27089;50.022;7.604;2023-01-05T00:07:36;10.70;99.90
41344;DHT22;27089;50.022;7.604;2023-01-05T00:10:03;10.70;99.90
41344;DHT22;27089;50.022;7.604;2023-01-05T00:12:50;10.70;99.90
41344;DHT22;27089;50.022;7.604;2023-01-05T00:15:35;10.70;99.90
41344;DHT22;27089;50.022;7.604;2023-01-05T00:18:16;10.70;99.90
41344;DHT22;27089;50.022;7.604;2023-01-05T00:21:01;10.70;99.90
41344;DHT22;27089;50.022;7.604;2023-01-05T00:23:47;10.70;99.90
41344;DHT22;27089;50.022;7.604;2023-01-05T00:26:14;10.70;99.90
41344;DHT22;27089;50.022;7.604;2023-01-05T00:28:41;10.70;99.90
41344;DHT22;27089;50.022;7.604;2023-01-05T00:31:08;10.70;99.90
41344;DHT22;27089;50.022;7.604;2023-01-05T00:33:35;10.70;99.90
41344;DHT22;27089;50.022;7.604;2023-01-05T00:36:07;10.70;99.90
41344;DHT22;27089;50.022;7.604;2023-01-05T00:38:34;10.70;99.90
41344;DHT22;27089;50.022;7.604;2023-01-05T00:41:03;10.70;99.90
41344;DHT22;27089;50.022;7.604;2023-01-05T00:43:30;10.60;99.90
41344;DHT22;27089;50.022;7.604;2023-01-05T00:45:57;10.60;99.90
41344;DHT22;27089;50.022;7.604;2023-01-05T00:48:24;10.60;99.90
41344;DHT22;27089;50.022;7.604;2023-01-05T00:50:50;10.60;99.90
41344;DHT22;27089;50.022;7.604;2023-01-05T00:53:17;10.60;99.90
41344;DHT22;27089;50.022;7.604;2023-01-05T00:55:44;10.60;99.90
41344;DHT22;27089;50.022;7.604;2023-01-05T00:58:22;10.50;99.90
41344;DHT22;27089;50.022;7.604;2023-01-05T01:00:49;10.60;99.90
41344;DHT22;27089;50.022;7.604;2023-01-05T01:03:16;10.50;99.90
41344;DHT22;27089;50.022;7.604;2023-01-05T01:05:43;10.50;99.90
41344;DHT22;27089;50.022;7.604;2023-01-05T01:08:10;10.60;99.90
41344;DHT22;27089;50.022;7.604;2023-01-05T01:10:38;10.50;99.90
41344;DHT22;27089;50.022;7.604;2023-01-05T01:13:05;10.50;99.90
41344;DHT22;27089;50.022;7.604;2023-01-05T01:15:34;10.50;99.90
41344;DHT22;27089;50.022;7.604;2023-01-05T01:18:01;10.50;99.90
41344;DHT22;27089;50.022;7.604;2023-01-05T01:20:28;10.50;99.90
41344;DHT22;27089;50.022;7.604;2023-01-05T01:22:55;10.50;99.90
41344;DHT22;27089;50.022;7.604;2023-01-05T01:25:24;10.50;99.90
41344;DHT22;27089;50.022;7.604;2023-01-05T01:27:51;10.50;99.90
41344;DHT22;27089;50.022;7.604;2023-01-05T01:30:18;10.40;99.90
41344;DHT22;27089;50.022;7.604;2023-01-05T01:32:47;10.40;99.90
41344;DHT22;27089;50.022;7.604;2023-01-05T01:35:14;10.40;99.90
41344;DHT22;27089;50.022;7.604;2023-01-05T01:37:40;10.40;99.90
41344;DHT22;27089;50.022;7.604;2023-01-05T01:40:09;10.30;99.90
41344;DHT22;27089;50.022;7.604;2023-01-05T01:42:36;10.30;99.90
41344;DHT22;27089;50.022;7.604;2023-01-05T01:45:14;10.30;99.90
41344;DHT22;27089;50.022;7.604;2023-01-05T01:47:46;10.30;99.90
41344;DHT22;27089;50.022;7.604;2023-01-05T01:50:19;10.20;99.90
41344;DHT22;27089;50.022;7.604;2023-01-05T01:52:49;10.20;99.90
41344;DHT22;27089;50.022;7.604;2023-01-05T01:55:18;10.20;99.90
41344;DHT22;27089;50.022;7.604;2023-01-05T01:57:46;10.20;99.90
41344;DHT22;27089;50.022;7.604;2023-01-05T02:00:14;10.20;99.90
41344;DHT22;27089;50.022;7.604;2023-01-05T02:02:41;10.10;99.90
41344;DHT22;27089;50.022;7.604;2023-01-05T02:05:10;10.10;99.90
41344;DHT22;27089;50.022;7.604;2023-01-05T02:07:44;10.10;99.90
41344;DHT22;27089;50.022;7.604;2023-01-05T02:10:12;10.10;99.90
41344;DHT22;27089;50.022;7.604;2023-01-05T02:12:47;10.10;99.90
41344;DHT22;27089;50.022;7.604;2023-01-05T02:15:23;10.10;99.90
41344;DHT22;27089;50.022;7.604;2023-01-05T02:18:01;10.10;99.90
41344;DHT22;27089;50.022;7.604;2023-01-05T02:20:41;10.10;99.90
41344;DHT22;27089;50.022;7.604;2023-01-05T02:23:47;10.00;99.90
41344;DHT22;27089;50.022;7.604;2023-01-05T02:32:41;10.00;99.90
41344;DHT22;27089;50.022;7.604;2023-01-05T02:35:15;9.90;99.90
41344;DHT22;27089;50.022;7.604;2023-01-05T02:37:50;10.00;99.90
41344;DHT22;27089;50.022;7.604;2023-01-05T02:40:22;10.00;99.90
41344;DHT22;27089;50.022;7.604;2023-01-05T02:42:51;10.00;99.90
41344;DHT22;27089;50.022;7.604;2023-01-05T02:45:20;9.90;99.90
41344;DHT22;27089;50.022;7.604;2023-01-05T02:47:49;10.00;99.90
41344;DHT22;27089;50.022;7.604;2023-01-05T02:50:19;9.90;99.90
41344;DHT22;27089;50.022;7.604;2023-01-05T02:52:54;9.90;99.90
41344;DHT22;27089;50.022;7.604;2023-01-05T02:55:26;9.90;99.90
41344;DHT22;27089;50.022;7.604;2023-01-05T02:58:01;9.80;99.90
41344;DHT22;27089;50.022;7.604;2023-01-05T03:00:34;9.80;99.90
41344;DHT22;27089;50.022;7.604;2023-01-05T03:03:07;9.70;99.90
41344;DHT22;27089;50.022;7.604;2023-01-05T03:05:39;9.70;99.90
41344;DHT22;27089;50.022;7.604;2023-01-05T03:08:08;9.70;99.90
41344;DHT22;27089;50.022;7.604;2023-01-05T03:10:51;9.70;99.90
41344;DHT22;27089;50.022;7.604;2023-01-05T03:13:39;9.60;99.90
41344;DHT22;27089;50.022;7.604;2023-01-05T03:16:09;9.70;99.90
41344;DHT22;27089;50.022;7.604;2023-01-05T03:18:38;9.70;99.90
41344;DHT22;27089;50.022;7.604;2023-01-05T03:21:21;9.60;99.90
41344;DHT22;27089;50.022;7.604;2023-01-05T03:23:49;9.60;99.90
41344;DHT22;27089;50.022;7.604;2023-01-05T03:26:34;9.50;99.90
41344;DHT22;27089;50.022;7.604;2023-01-05T03:29:18;9.50;99.90
41344;DHT22;27089;50.022;7.604;2023-01-05T03:32:07;9.50;99.90
41344;DHT22;27089;50.022;7.604;2023-01-05T03:34:57;9.50;99.90
41344;DHT22;27089;50.022;7.604;2023-01-05T03:37:46;9.50;99.90
41344;DHT22;27089;50.022;7.604;2023-01-05T03:40:17;9.50;99.90
41344;DHT22;27089;50.022;7.604;2023-01-05T03:42:47;9.50;99.90
41344;DHT22;27089;50.022;7.604;2023-01-05T03:45:15;9.50;99.90
41344;DHT22;27089;50.022;7.604;2023-01-05T03:47:43;9.50;99.90
41344;DHT22;27089;50.022;7.604;2023-01-05T03:50:12;9.40;99.90
41344;DHT22;27089;50.022;7.604;2023-01-05T03:52:39;9.40;99.90
41344;DHT22;27089;50.022;7.604;2023-01-05T03:55:07;9.40;99.90
41344;DHT22;27089;50.022;7.604;2023-01-05T03:57:34;9.40;99.90
41344;DHT22;27089;50.022;7.604;2023-01-05T04:00:01;9.40;99.90
41344;DHT22;27089;50.022;7.604;2023-01-05T04:02:28;9.40;99.90
41344;DHT22;27089;50.022;7.604;2023-01-05T04:04:55;9.40;99.90
41344;DHT22;27089;50.022;7.604;2023-01-05T04:07:23;9.40;99.90
41344;DHT22;27089;50.022;7.604;2023-01-05T04:09:50;9.40;99.90
41344;DHT22;27089;50.022;7.604;2023-01-05T04:12:17;9.40;99.90
41344;DHT22;27089;50.022;7.604;2023-01-05T04:14:44;9.40;99.90
41344;DHT22;27089;50.022;7.604;2023-01-05T04:17:12;9.30;99.90
41344;DHT22;27089;50.022;7.604;2023-01-05T04:23:11;9.30;99.90
41344;DHT22;27089;50.022;7.604;2023-01-05T04:25:39;9.30;99.90
41344;DHT22;27089;50.022;7.604;2023-01-05T04:28:06;9.30;99.90
41344;DHT22;27089;50.022;7.604;2023-01-05T04:30:32;9.30;99.90
41344;DHT22;27089;50.022;7.604;2023-01-05T04:32:59;9.30;99.90
41344;DHT22;27089;50.022;7.604;2023-01-05T04:35:26;9.30;99.90
41344;DHT22;27089;50.022;7.604;2023-01-05T04:37:53;9.20;99.90
41344;DHT22;27089;50.022;7.604;2023-01-05T04:40:22;9.20;99.90
41344;DHT22;27089;50.022;7.604;2023-01-05T04:42:49;9.20;99.90
41344;DHT22;27089;50.022;7.604;2023-01-05T04:45:16;9.20;99.90
41344;DHT22;27089;50.022;7.604;2023-01-05T04:47:43;9.20;99.90
41344;DHT22;27089;50.022;7.604;2023-01-05T04:50:10;9.20;99.90
41344;DHT22;27089;50.022;7.604;2023-01-05T04:52:37;9.20;99.90
41344;DHT22;27089;50.022;7.604;2023-01-05T04:55:04;9.20;99.90
41344;DHT22;27089;50.022;7.604;2023-01-05T04:57:33;9.20;99.90
41344;DHT22;27089;50.022;7.604;2023-01-05T05:00:00;9.20;99.90
41344;DHT22;27089;50.022;7.604;2023-01-05T05:02:28;9.20;99.90
41344;DHT22;27089;50.022;7.604;2023-01-05T05:04:55;9.20;99.90
41344;DHT22;27089;50.022;7.604;2023-01-05T05:07:23;9.20;99.90
41344;DHT22;27089;50.022;7.604;2023-01-05T05:09:50;9.20;99.90
41344;DHT22;27089;50.022;7.604;2023-01-05T05:12:17;9.20;99.90
41344;DHT22;27089;50.022;7.604;2023-01-05T05:14:46;9.10;99.90
41344;DHT22;27089;50.022;7.604;2023-01-05T05:17:14;9.10;99.90
41344;DHT22;27089;50.022;7.604;2023-01-05T05:19:41;9.10;99.90
41344;DHT22;27089;50.022;7.604;2023-01-05T05:22:08;9.00;99.90
41344;DHT22;27089;50.022;7.604;2023-01-05T05:24:35;9.00;99.90
41344;DHT22;27089;50.022;7.604;2023-01-05T05:27:02;9.00;99.90
41344;DHT22;27089;50.022;7.604;2023-01-05T05:29:29;9.10;99.90
41344;DHT22;27089;50.022;7.604;2023-01-05T05:31:58;9.10;99.90
41344;DHT22;27089;50.022;7.604;2023-01-05T05:34:25;9.10;99.90
41344;DHT22;27089;50.022;7.604;2023-01-05T05:36:52;9.10;99.90
41344;DHT22;27089;50.022;7.604;2023-01-05T05:39:19;9.00;99.90
41344;DHT22;27089;50.022;7.604;2023-01-05T05:41:45;9.00;99.90
41344;DHT22;27089;50.022;7.604;2023-01-05T05:44:12;9.00;99.90
41344;DHT22;27089;50.022;7.604;2023-01-05T05:46:39;8.90;99.90
41344;DHT22;27089;50.022;7.604;2023-01-05T05:49:08;8.90;99.90
41344;DHT22;27089;50.022;7.604;2023-01-05T05:51:35;8.90;99.90
41344;DHT22;27089;50.022;7.604;2023-01-05T05:54:02;8.80;99.90
41344;DHT22;27089;50.022;7.604;2023-01-05T05:56:29;8.90;99.90
41344;DHT22;27089;50.022;7.604;2023-01-05T05:58:56;8.90;99.90
41344;DHT22;27089;50.022;7.604;2023-01-05T06:01:23;8.90;99.90
41344;DHT22;27089;50.022;7.604;2023-01-05T06:03:50;8.90;99.90
41344;DHT22;27089;50.022;7.604;2023-01-05T06:06:18;8.90;99.90
41344;DHT22;27089;50.022;7.604;2023-01-05T06:08:45;8.90;99.90
41344;DHT22;27089;50.022;7.604;2023-01-05T06:11:12;8.90;99.90
41344;DHT22;27089;50.022;7.604;2023-01-05T06:13:39;8.90;99.90
41344;DHT22;27089;50.022;7.604;2023-01-05T06:16:07;8.90;99.90
41344;DHT22;27089;50.022;7.604;2023-01-05T06:18:33;8.90;99.90
41344;DHT22;27089;50.022;7.604;2023-01-05T06:21:00;8.90;99.90
41344;DHT22;27089;50.022;7.604;2023-01-05T06:23:29;8.90;99.90
41344;DHT22;27089;50.022;7.604;2023-01-05T06:25:56;9.00;99.90
41344;DHT22;27089;50.022;7.604;2023-01-05T06:28:23;8.90;99.90
41344;DHT22;27089;50.022;7.604;2023-01-05T06:30:50;8.90;99.90
41344;DHT22;27089;50.022;7.604;2023-01-05T06:33:17;8.90;99.90
41344;DHT22;27089;50.022;7.604;2023-01-05T06:35:44;8.90;99.90
41344;DHT22;27089;50.022;7.604;2023-01-05T06:38:10;8.90;99.90
41344;DHT22;27089;50.022;7.604;2023-01-05T06:40:39;8.90;99.90
41344;DHT22;27089;50.022;7.604;2023-01-05T06:43:09;8.90;99.90
41344;DHT22;27089;50.022;7.604;2023-01-05T06:45:36;8.90;99.90
41344;DHT22;27089;50.022;7.604;2023-01-05T06:48:03;8.90;99.90
41344;DHT22;27089;50.022;7.604;2023-01-05T06:50:30;8.90;99.90
41344;DHT22;27089;50.022;7.604;2023-01-05T06:52:57;8.90;99.90
41344;DHT22;27089;50.022;7.604;2023-01-05T06:55:24;8.90;99.90
41344;DHT22;27089;50.022;7.604;2023-01-05T06:57:53;8.90;99.90
41344;DHT22;27089;50.022;7.604;2023-01-05T07:00:20;8.80;99.90
41344;DHT22;27089;50.022;7.604;2023-01-05T07:02:48;8.80;99.90
41344;DHT22;27089;50.022;7.604;2023-01-05T07:05:15;8.80;99.90
41344;DHT22;27089;50.022;7.604;2023-01-05T07:07:42;8.80;99.90
41344;DHT22;27089;50.022;7.604;2023-01-05T07:10:09;8.80;99.90
41344;DHT22;27089;50.022;7.604;2023-01-05T07:12:36;8.80;99.90
41344;DHT22;27089;50.022;7.604;2023-01-05T07:15:05;8.80;99.90
41344;DHT22;27089;50.022;7.604;2023-01-05T07:17:33;8.80;99.90
41344;DHT22;27089;50.022;7.604;2023-01-05T07:20:01;8.80;99.90
41344;DHT22;27089;50.022;7.604;2023-01-05T07:22:28;8.80;99.90
41344;DHT22;27089;50.022;7.604;2023-01-05T07:24:56;8.80;99.90
41344;DHT22;27089;50.022;7.604;2023-01-05T07:27:23;8.80;99.90
41344;DHT22;27089;50.022;7.604;2023-01-05T07:29:50;8.80;99.90
41344;DHT22;27089;50.022;7.604;2023-01-05T07:32:18;8.80;99.90
41344;DHT22;27089;50.022;7.604;2023-01-05T07:34:45;8.80;99.90
41344;DHT22;27089;50.022;7.604;2023-01-05T07:37:13;8.80;99.90
41344;DHT22;27089;50.022;7.604;2023-01-05T07:39:40;8.80;99.90
41344;DHT22;27089;50.022;7.604;2023-01-05T07:42:07;8.80;99.90
41344;DHT22;27089;50.022;7.604;2023-01-05T07:44:34;8.80;99.90
41344;DHT22;27089;50.022;7.604;2023-01-05T07:47:00;8.90;99.90
41344;DHT22;27089;50.022;7.604;2023-01-05T07:49:29;8.90;99.90
41344;DHT22;27089;50.022;7.604;2023-01-05T07:51:56;8.90;99.90
41344;DHT22;27089;50.022;7.604;2023-01-05T07:54:23;8.90;99.90
41344;DHT22;27089;50.022;7.604;2023-01-05T07:56:50;8.90;99.90
41344;DHT22;27089;50.022;7.604;2023-01-05T07:59:17;8.90;99.90
41344;DHT22;27089;50.022;7.604;2023-01-05T08:01:43;8.90;99.90
41344;DHT22;27089;50.022;7.604;2023-01-05T08:04:10;8.90;99.90
41344;DHT22;27089;50.022;7.604;2023-01-05T08:06:39;8.90;99.90
41344;DHT22;27089;50.022;7.604;2023-01-05T08:09:06;8.90;99.90
41344;DHT22;27089;50.022;7.604;2023-01-05T08:11:46;8.90;99.90
41344;DHT22;27089;50.022;7.604;2023-01-05T08:14:13;8.90;99.90
41344;DHT22;27089;50.022;7.604;2023-01-05T08:16:39;9.00;99.90
41344;DHT22;27089;50.022;7.604;2023-01-05T08:19:19;9.00;99.90
41344;DHT22;27089;50.022;7.604;2023-01-05T08:21:47;9.00;99.90
41344;DHT22;27089;50.022;7.604;2023-01-05T08:24:15;9.00;99.90
41344;DHT22;27089;50.022;7.604;2023-01-05T08:26:41;9.10;99.90
41344;DHT22;27089;50.022;7.604;2023-01-05T08:29:09;9.10;99.90
41344;DHT22;27089;50.022;7.604;2023-01-05T08:31:38;9.10;99.90
41344;DHT22;27089;50.022;7.604;2023-01-05T08:34:05;9.10;99.90
41344;DHT22;27089;50.022;7.604;2023-01-05T08:36:32;9.10;99.90
41344;DHT22;27089;50.022;7.604;2023-01-05T08:39:00;9.20;99.90
41344;DHT22;27089;50.022;7.604;2023-01-05T08:41:30;9.20;99.90
41344;DHT22;27089;50.022;7.604;2023-01-05T08:43:58;9.20;99.90
41344;DHT22;27089;50.022;7.604;2023-01-05T08:46:27;9.20;99.90
41344;DHT22;27089;50.022;7.604;2023-01-05T08:48:56;9.30;99.90
41344;DHT22;27089;50.022;7.604;2023-01-05T08:51:24;9.30;99.90
41344;DHT22;27089;50.022;7.604;2023-01-05T08:53:52;9.30;99.90
41344;DHT22;27089;50.022;7.604;2023-01-05T08:56:21;9.30;99.90
41344;DHT22;27089;50.022;7.604;2023-01-05T08:58:49;9.30;99.90
41344;DHT22;27089;50.022;7.604;2023-01-05T09:01:18;9.40;99.90
41344;DHT22;27089;50.022;7.604;2023-01-05T09:03:46;9.40;99.90
41344;DHT22;27089;50.022;7.604;2023-01-05T09:06:14;9.50;99.90
41344;DHT22;27089;50.022;7.604;2023-01-05T09:08:42;9.60;99.90
41344;DHT22;27089;50.022;7.604;2023-01-05T09:11:11;9.70;99.90
41344;DHT22;27089;50.022;7.604;2023-01-05T09:13:45;9.80;99.90
41344;DHT22;27089;50.022;7.604;2023-01-05T09:16:14;9.80;99.90
41344;DHT22;27089;50.022;7.604;2023-01-05T09:18:42;9.90;99.90
41344;DHT22;27089;50.022;7.604;2023-01-05T09:21:09;10.00;99.90
41344;DHT22;27089;50.022;7.604;2023-01-05T09:23:37;10.20;99.90
41344;DHT22;27089;50.022;7.604;2023-01-05T09:26:05;10.30;99.90
41344;DHT22;27089;50.022;7.604;2023-01-05T09:28:33;10.50;99.90
41344;DHT22;27089;50.022;7.604;2023-01-05T09:31:07;10.50;99.90
41344;DHT22;27089;50.022;7.604;2023-01-05T09:33:34;10.60;99.90
41344;DHT22;27089;50.022;7.604;2023-01-05T09:36:01;10.60;99.90
41344;DHT22;27089;50.022;7.604;2023-01-05T09:38:28;10.60;99.90
41344;DHT22;27089;50.022;7.604;2023-01-05T09:40:59;10.70;99.90
41344;DHT22;27089;50.022;7.604;2023-01-05T09:43:33;10.70;99.90
41344;DHT22;27089;50.022;7.604;2023-01-05T09:46:02;10.60;99.90
41344;DHT22;27089;50.022;7.604;2023-01-05T09:48:37;10.50;99.90
41344;DHT22;27089;50.022;7.604;2023-01-05T09:51:04;10.50;99.90
41344;DHT22;27089;50.022;7.604;2023-01-05T09:53:32;10.50;99.90
41344;DHT22;27089;50.022;7.604;2023-01-05T09:55:59;10.50;99.90
41344;DHT22;27089;50.022;7.604;2023-01-05T09:58:30;10.50;99.90
41344;DHT22;27089;50.022;7.604;2023-01-05T10:01:06;10.50;99.90
41344;DHT22;27089;50.022;7.604;2023-01-05T10:03:39;10.50;99.90
41344;DHT22;27089;50.022;7.604;2023-01-05T10:06:11;10.60;99.90
41344;DHT22;27089;50.022;7.604;2023-01-05T10:08:40;10.70;99.90
41344;DHT22;27089;50.022;7.604;2023-01-05T10:11:12;10.80;99.90
41344;DHT22;27089;50.022;7.604;2023-01-05T10:14:01;11.00;99.90
41344;DHT22;27089;50.022;7.604;2023-01-05T10:16:31;11.20;99.90
41344;DHT22;27089;50.022;7.604;2023-01-05T10:18:59;11.40;99.90
41344;DHT22;27089;50.022;7.604;2023-01-05T10:21:35;11.40;99.90
41344;DHT22;27089;50.022;7.604;2023-01-05T10:24:18;11.40;99.90
41344;DHT22;27089;50.022;7.604;2023-01-05T10:26:53;11.40;99.90
41344;DHT22;27089;50.022;7.604;2023-01-05T10:29:26;11.30;99.90
41344;DHT22;27089;50.022;7.604;2023-01-05T10:31:58;11.20;99.90
41344;DHT22;27089;50.022;7.604;2023-01-05T10:34:43;11.10;99.90
41344;DHT22;27089;50.022;7.604;2023-01-05T10:37:32;11.10;99.90
41344;DHT22;27089;50.022;7.604;2023-01-05T10:40:17;11.00;99.90
41344;DHT22;27089;50.022;7.604;2023-01-05T10:42:56;11.00;99.90
41344;DHT22;27089;50.022;7.604;2023-01-05T10:45:29;11.10;99.90
41344;DHT22;27089;50.022;7.604;2023-01-05T10:47:57;11.10;99.90
41344;DHT22;27089;50.022;7.604;2023-01-05T10:50:33;10.90;99.90
41344;DHT22;27089;50.022;7.604;2023-01-05T10:53:08;10.80;99.90
41344;DHT22;27089;50.022;7.604;2023-01-05T10:55:42;10.70;99.90
41344;DHT22;27089;50.022;7.604;2023-01-05T10:58:21;10.80;99.90
41344;DHT22;27089;50.022;7.604;2023-01-05T11:00:49;10.80;99.90
41344;DHT22;27089;50.022;7.604;2023-01-05T11:03:23;10.90;99.90
41344;DHT22;27089;50.022;7.604;2023-01-05T11:05:54;11.00;99.90
41344;DHT22;27089;50.022;7.604;2023-01-05T11:08:24;11.00;99.90
41344;DHT22;27089;50.022;7.604;2023-01-05T11:10:55;11.10;99.90
41344;DHT22;27089;50.022;7.604;2023-01-05T11:13:28;11.20;99.90
41344;DHT22;27089;50.022;7.604;2023-01-05T11:16:00;11.20;99.90
41344;DHT22;27089;50.022;7.604;2023-01-05T11:18:33;11.20;99.90
41344;DHT22;27089;50.022;7.604;2023-01-05T11:21:07;11.20;99.90
41344;DHT22;27089;50.022;7.604;2023-01-05T11:23:36;11.20;99.90
41344;DHT22;27089;50.022;7.604;2023-01-05T11:26:21;11.20;99.90
41344;DHT22;27089;50.022;7.604;2023-01-05T11:29:11;11.20;99.90
41344;DHT22;27089;50.022;7.604;2023-01-05T11:31:42;11.20;99.90
41344;DHT22;27089;50.022;7.604;2023-01-05T11:34:16;11.20;99.90
41344;DHT22;27089;50.022;7.604;2023-01-05T11:36:52;11.30;99.90
41344;DHT22;27089;50.022;7.604;2023-01-05T11:39:26;11.20;99.90
41344;DHT22;27089;50.022;7.604;2023-01-05T11:42:08;11.20;99.90
41344;DHT22;27089;50.022;7.604;2023-01-05T11:44:37;11.00;99.90
41344;DHT22;27089;50.022;7.604;2023-01-05T11:47:05;11.00;99.90
41344;DHT22;27089;50.022;7.604;2023-01-05T11:49:32;11.00;99.90
41344;DHT22;27089;50.022;7.604;2023-01-05T11:52:02;11.00;99.90
41344;DHT22;27089;50.022;7.604;2023-01-05T11:54:33;11.00;99.90
41344;DHT22;27089;50.022;7.604;2023-01-05T11:57:13;11.00;99.90
41344;DHT22;27089;50.022;7.604;2023-01-05T11:59:41;11.10;99.90
41344;DHT22;27089;50.022;7.604;2023-01-05T12:02:29;11.30;99.90
41344;DHT22;27089;50.022;7.604;2023-01-05T12:05:21;11.30;99.90
41344;DHT22;27089;50.022;7.604;2023-01-05T12:07:54;11.40;99.90
41344;DHT22;27089;50.022;7.604;2023-01-05T12:11:01;11.30;99.90
41344;DHT22;27089;50.022;7.604;2023-01-05T12:13:48;11.30;99.90
41344;DHT22;27089;50.022;7.604;2023-01-05T12:16:32;11.20;99.90
41344;DHT22;27089;50.022;7.604;2023-01-05T12:19:17;11.20;99.90
41344;DHT22;27089;50.022;7.604;2023-01-05T12:21:56;11.10;99.90
41344;DHT22;27089;50.022;7.604;2023-01-05T12:24:45;11.00;99.90
41344;DHT22;27089;50.022;7.604;2023-01-05T12:27:24;11.00;99.90
41344;DHT22;27089;50.022;7.604;2023-01-05T12:30:06;11.00;99.90
41344;DHT22;27089;50.022;7.604;2023-01-05T12:32:45;10.90;99.90
41344;DHT22;27089;50.022;7.604;2023-01-05T12:38:25;10.90;99.90
41344;DHT22;27089;50.022;7.604;2023-01-05T12:41:26;10.90;99.90
41344;DHT22;27089;50.022;7.604;2023-01-05T12:44:05;10.80;99.90
41344;DHT22;27089;50.022;7.604;2023-01-05T12:46:42;10.80;99.90
41344;DHT22;27089;50.022;7.604;2023-01-05T12:49:15;10.70;99.90
41344;DHT22;27089;50.022;7.604;2023-01-05T12:51:47;10.60;99.90
41344;DHT22;27089;50.022;7.604;2023-01-05T12:54:25;10.60;99.90
41344;DHT22;27089;50.022;7.604;2023-01-05T12:56:58;10.50;99.90
41344;DHT22;27089;50.022;7.604;2023-01-05T12:59:29;10.40;99.90
41344;DHT22;27089;50.022;7.604;2023-01-05T13:02:03;10.30;99.90
41344;DHT22;27089;50.022;7.604;2023-01-05T13:04:38;10.30;99.90
41344;DHT22;27089;50.022;7.604;2023-01-05T13:07:08;10.30;99.90
41344;DHT22;27089;50.022;7.604;2023-01-05T13:09:36;10.30;99.90
41344;DHT22;27089;50.022;7.604;2023-01-05T13:12:07;10.30;99.90
41344;DHT22;27089;50.022;7.604;2023-01-05T13:14:41;10.20;99.90
41344;DHT22;27089;50.022;7.604;2023-01-05T13:17:19;10.20;99.90
41344;DHT22;27089;50.022;7.604;2023-01-05T13:19:53;10.20;99.90
41344;DHT22;27089;50.022;7.604;2023-01-05T13:22:22;10.20;99.90
41344;DHT22;27089;50.022;7.604;2023-01-05T13:24:53;10.20;99.90
41344;DHT22;27089;50.022;7.604;2023-01-05T13:27:24;10.20;99.90
41344;DHT22;27089;50.022;7.604;2023-01-05T13:29:54;10.20;99.90
41344;DHT22;27089;50.022;7.604;2023-01-05T13:32:47;10.20;99.90
41344;DHT22;27089;50.022;7.604;2023-01-05T13:35:30;10.20;99.90
41344;DHT22;27089;50.022;7.604;2023-01-05T13:41:26;10.30;99.90
41344;DHT22;27089;50.022;7.604;2023-01-05T13:44:30;10.30;99.90
41344;DHT22;27089;50.022;7.604;2023-01-05T13:47:21;10.40;99.90
41344;DHT22;27089;50.022;7.604;2023-01-05T13:50:14;10.40;99.90
41344;DHT22;27089;50.022;7.604;2023-01-05T13:55:42;10.50;99.90
41344;DHT22;27089;50.022;7.604;2023-01-05T13:58:34;10.50;99.90
41344;DHT22;27089;50.022;7.604;2023-01-05T14:01:06;10.50;99.90
41344;DHT22;27089;50.022;7.604;2023-01-05T14:03:37;10.50;99.90
41344;DHT22;27089;50.022;7.604;2023-01-05T14:06:12;10.50;99.90
41344;DHT22;27089;50.022;7.604;2023-01-05T14:08:47;10.50;99.90
41344;DHT22;27089;50.022;7.604;2023-01-05T14:11:17;10.40;99.90
41344;DHT22;27089;50.022;7.604;2023-01-05T14:13:47;10.40;99.90
41344;DHT22;27089;50.022;7.604;2023-01-05T14:16:47;10.40;99.90
41344;DHT22;27089;50.022;7.604;2023-01-05T14:19:22;10.30;99.90
41344;DHT22;27089;50.022;7.604;2023-01-05T14:24:41;10.30;99.90
41344;DHT22;27089;50.022;7.604;2023-01-05T14:27:13;10.30;99.90
41344;DHT22;27089;50.022;7.604;2023-01-05T14:29:59;10.30;99.90
41344;DHT22;27089;50.022;7.604;2023-01-05T14:32:29;10.20;99.90
41344;DHT22;27089;50.022;7.604;2023-01-05T14:35:04;10.20;99.90
41344;DHT22;27089;50.022;7.604;2023-01-05T14:37:36;10.20;99.90
41344;DHT22;27089;50.022;7.604;2023-01-05T14:40:20;10.10;99.90
41344;DHT22;27089;50.022;7.604;2023-01-05T14:42:49;10.10;99.90
41344;DHT22;27089;50.022;7.604;2023-01-05T14:45:22;10.10;99.90
41344;DHT22;27089;50.022;7.604;2023-01-05T14:47:54;10.10;99.90
41344;DHT22;27089;50.022;7.604;2023-01-05T14:50:33;10.10;99.90
41344;DHT22;27089;50.022;7.604;2023-01-05T14:53:04;10.10;99.90
41344;DHT22;27089;50.022;7.604;2023-01-05T14:55:33;10.20;99.90
41344;DHT22;27089;50.022;7.604;2023-01-05T14:58:02;10.20;99.90
41344;DHT22;27089;50.022;7.604;2023-01-05T15:00:52;10.20;99.90
41344;DHT22;27089;50.022;7.604;2023-01-05T15:03:29;10.20;99.90
41344;DHT22;27089;50.022;7.604;2023-01-05T15:06:04;10.20;99.90
41344;DHT22;27089;50.022;7.604;2023-01-05T15:08:49;10.20;99.90
41344;DHT22;27089;50.022;7.604;2023-01-05T15:11:38;10.10;99.90
41344;DHT22;27089;50.022;7.604;2023-01-05T15:14:21;10.10;99.90
41344;DHT22;27089;50.022;7.604;2023-01-05T15:23:13;10.10;99.90
41344;DHT22;27089;50.022;7.604;2023-01-05T15:29:04;10.00;99.90
41344;DHT22;27089;50.022;7.604;2023-01-05T15:31:40;10.10;99.90
41344;DHT22;27089;50.022;7.604;2023-01-05T15:34:17;10.00;99.90
41344;DHT22;27089;50.022;7.604;2023-01-05T15:36:52;10.00;99.90
41344;DHT22;27089;50.022;7.604;2023-01-05T15:39:23;10.00;99.90
41344;DHT22;27089;50.022;7.604;2023-01-05T15:41:50;10.00;99.90
41344;DHT22;27089;50.022;7.604;2023-01-05T15:44:20;10.00;99.90
41344;DHT22;27089;50.022;7.604;2023-01-05T15:46:48;10.00;99.90
41344;DHT22;27089;50.022;7.604;2023-01-05T15:49:22;10.00;99.90
41344;DHT22;27089;50.022;7.604;2023-01-05T15:51:53;9.90;99.90
41344;DHT22;27089;50.022;7.604;2023-01-05T15:54:23;9.90;99.90
41344;DHT22;27089;50.022;7.604;2023-01-05T15:56:51;9.90;99.90
41344;DHT22;27089;50.022;7.604;2023-01-05T15:59:25;9.90;99.90
41344;DHT22;27089;50.022;7.604;2023-01-05T16:01:53;9.80;99.90
41344;DHT22;27089;50.022;7.604;2023-01-05T16:04:20;9.80;99.90
41344;DHT22;27089;50.022;7.604;2023-01-05T16:06:49;9.70;99.90
41344;DHT22;27089;50.022;7.604;2023-01-05T16:09:23;9.70;99.90
41344;DHT22;27089;50.022;7.604;2023-01-05T16:11:55;9.70;99.90
41344;DHT22;27089;50.022;7.604;2023-01-05T16:14:27;9.70;99.90
41344;DHT22;27089;50.022;7.604;2023-01-05T16:17:00;9.70;99.90
41344;DHT22;27089;50.022;7.604;2023-01-05T16:19:32;9.70;99.90
41344;DHT22;27089;50.022;7.604;2023-01-05T16:22:05;9.70;99.90
41344;DHT22;27089;50.022;7.604;2023-01-05T16:24:41;9.70;99.90
41344;DHT22;27089;50.022;7.604;2023-01-05T16:27:10;9.70;99.90
41344;DHT22;27089;50.022;7.604;2023-01-05T16:29:39;9.70;99.90
41344;DHT22;27089;50.022;7.604;2023-01-05T16:32:29;9.70;99.90
41344;DHT22;27089;50.022;7.604;2023-01-05T16:35:31;9.70;99.90
41344;DHT22;27089;50.022;7.604;2023-01-05T16:38:04;9.70;99.90